sensor_id;sensor_type;location;lat;lon;timestamp;temperature;humidity
23471;DHT22;11908;50.806;4.424;2024-01-30T00:01:27;11.20;99.90
23471;DHT22;11908;50.806;4.424;2024-01-30T00:03:53;11.20;99.90
23471;DHT22;11908;50.806;4.424;2024-01-30T00:06:20;11.20;99.90
23471;DHT22;11908;50.806;4.424;2024-01-30T00:08:49;11.20;99.90
23471;DHT22;11908;50.806;4.424;2024-01-30T00:11:16;11.20;99.90
23471;DHT22;11908;50.806;4.424;2024-01-30T00:13:41;11.20;99.90
23471;DHT22;11908;50.806;4.424;2024-01-30T00:16:07;11.10;99.90
23471;DHT22;11908;50.806;4.424;2024-01-30T00:18:34;11.10;99.90
23471;DHT22;11908;50.806;4.424;2024-01-30T00:21:00;11.10;99.90
23471;DHT22;11908;50.806;4.424;2024-01-30T00:23:26;11.10;99.90
23471;DHT22;11908;50.806;4.424;2024-01-30T00:25:51;11.20;99.90
23471;DHT22;11908;50.806;4.424;2024-01-30T00:28:17;11.20;99.90
23471;DHT22;11908;50.806;4.424;2024-01-30T00:30:43;11.20;99.90
23471;DHT22;11908;50.806;4.424;2024-01-30T00:33:09;11.20;99.90
23471;DHT22;11908;50.806;4.424;2024-01-30T00:35:35;11.20;99.90
23471;DHT22;11908;50.806;4.424;2024-01-30T00:38:01;11.20;99.90
23471;DHT22;11908;50.806;4.424;2024-01-30T00:40:26;11.20;99.90
23471;DHT22;11908;50.806;4.424;2024-01-30T00:42:52;11.20;99.90
23471;DHT22;11908;50.806;4.424;2024-01-30T00:45:18;11.30;99.90
23471;DHT22;11908;50.806;4.424;2024-01-30T00:47:44;11.30;99.90
23471;DHT22;11908;50.806;4.424;2024-01-30T00:50:10;11.30;99.90
23471;DHT22;11908;50.806;4.424;2024-01-30T00:52:36;11.30;99.90
23471;DHT22;11908;50.806;4.424;2024-01-30T00:55:04;11.40;99.90
23471;DHT22;11908;50.806;4.424;2024-01-30T00:57:30;11.40;99.90
23471;DHT22;11908;50.806;4.424;2024-01-30T00:59:56;11.30;99.90
23471;DHT22;11908;50.806;4.424;2024-01-30T01:02:22;11.30;99.90
23471;DHT22;11908;50.806;4.424;2024-01-30T01:04:48;11.30;99.90
23471;DHT22;11908;50.806;4.424;2024-01-30T01:07:13;11.40;99.90
23471;DHT22;11908;50.806;4.424;2024-01-30T01:09:40;11.30;99.90
23471;DHT22;11908;50.806;4.424;2024-01-30T01:12:06;11.30;99.90
23471;DHT22;11908;50.806;4.424;2024-01-30T01:14:31;11.30;99.90
23471;DHT22;11908;50.806;4.424;2024-01-30T01:16:57;11.30;99.90
23471;DHT22;11908;50.806;4.424;2024-01-30T01:19:23;11.40;99.90
23471;DHT22;11908;50.806;4.424;2024-01-30T01:21:48;11.40;99.90
23471;DHT22;11908;50.806;4.424;2024-01-30T01:24:14;11.40;99.90
23471;DHT22;11908;50.806;4.424;2024-01-30T01:26:40;11.40;99.90
23471;DHT22;11908;50.806;4.424;2024-01-30T01:29:09;11.50;99.90
23471;DHT22;11908;50.806;4.424;2024-01-30T01:31:37;11.50;99.90
23471;DHT22;11908;50.806;4.424;2024-01-30T01:34:10;11.50;99.90
23471;DHT22;11908;50.806;4.424;2024-01-30T01:36:35;11.50;99.90
23471;DHT22;11908;50.806;4.424;2024-01-30T01:39:01;11.50;99.90
23471;DHT22;11908;50.806;4.424;2024-01-30T01:41:32;11.60;99.90
23471;DHT22;11908;50.806;4.424;2024-01-30T01:43:59;11.60;99.90
23471;DHT22;11908;50.806;4.424;2024-01-30T01:46:27;11.50;99.90
23471;DHT22;11908;50.806;4.424;2024-01-30T01:48:53;11.60;99.90
23471;DHT22;11908;50.806;4.424;2024-01-30T01:51:21;11.60;99.90
23471;DHT22;11908;50.806;4.424;2024-01-30T01:53:47;11.60;99.90
23471;DHT22;11908;50.806;4.424;2024-01-30T01:56:13;11.70;99.90
23471;DHT22;11908;50.806;4.424;2024-01-30T01:58:39;11.70;99.90
23471;DHT22;11908;50.806;4.424;2024-01-30T02:01:05;11.60;99.90
23471;DHT22;11908;50.806;4.424;2024-01-30T02:03:34;11.60;99.90
23471;DHT22;11908;50.806;4.424;2024-01-30T02:05:59;11.60;99.90
23471;DHT22;11908;50.806;4.424;2024-01-30T02:08:26;11.60;99.90
23471;DHT22;11908;50.806;4.424;2024-01-30T02:10:52;11.60;99.90
23471;DHT22;11908;50.806;4.424;2024-01-30T02:13:18;11.60;99.90
23471;DHT22;11908;50.806;4.424;2024-01-30T02:15:44;11.60;99.90
23471;DHT22;11908;50.806;4.424;2024-01-30T02:18:14;11.60;99.90
23471;DHT22;11908;50.806;4.424;2024-01-30T02:20:39;11.60;99.90
23471;DHT22;11908;50.806;4.424;2024-01-30T02:23:07;11.60;99.90
23471;DHT22;11908;50.806;4.424;2024-01-30T02:25:38;11.60;99.90
23471;DHT22;11908;50.806;4.424;2024-01-30T02:28:12;11.60;99.90
23471;DHT22;11908;50.806;4.424;2024-01-30T02:30:39;11.60;99.90
23471;DHT22;11908;50.806;4.424;2024-01-30T02:33:05;11.70;99.90
23471;DHT22;11908;50.806;4.424;2024-01-30T02:35:31;11.70;99.90
23471;DHT22;11908;50.806;4.424;2024-01-30T02:37:57;11.60;99.90
23471;DHT22;11908;50.806;4.424;2024-01-30T02:40:22;11.60;99.90
23471;DHT22;11908;50.806;4.424;2024-01-30T02:42:48;11.60;99.90
23471;DHT22;11908;50.806;4.424;2024-01-30T02:45:14;11.70;99.90
23471;DHT22;11908;50.806;4.424;2024-01-30T02:47:40;11.70;99.90
23471;DHT22;11908;50.806;4.424;2024-01-30T02:50:06;11.80;99.90
23471;DHT22;11908;50.806;4.424;2024-01-30T02:52:32;11.80;99.90
23471;DHT22;11908;50.806;4.424;2024-01-30T02:54:58;11.80;99.90
23471;DHT22;11908;50.806;4.424;2024-01-30T02:57:23;11.80;99.90
23471;DHT22;11908;50.806;4.424;2024-01-30T02:59:49;11.70;99.90
23471;DHT22;11908;50.806;4.424;2024-01-30T03:02:15;11.80;99.90
23471;DHT22;11908;50.806;4.424;2024-01-30T03:04:43;11.70;99.90
23471;DHT22;11908;50.806;4.424;2024-01-30T03:07:09;11.70;99.90
23471;DHT22;11908;50.806;4.424;2024-01-30T03:09:36;11.70;99.90
23471;DHT22;11908;50.806;4.424;2024-01-30T03:12:02;11.70;99.90
23471;DHT22;11908;50.806;4.424;2024-01-30T03:14:28;11.80;99.90
23471;DHT22;11908;50.806;4.424;2024-01-30T03:16:54;11.80;99.90
23471;DHT22;11908;50.806;4.424;2024-01-30T03:19:19;11.70;99.90
23471;DHT22;11908;50.806;4.424;2024-01-30T03:21:45;11.70;99.90
23471;DHT22;11908;50.806;4.424;2024-01-30T03:24:11;11.70;99.90
23471;DHT22;11908;50.806;4.424;2024-01-30T03:26:36;11.70;99.90
23471;DHT22;11908;50.806;4.424;2024-01-30T03:29:02;11.70;99.90
23471;DHT22;11908;50.806;4.424;2024-01-30T03:31:28;11.70;99.90
23471;DHT22;11908;50.806;4.424;2024-01-30T03:33:53;11.70;99.90
23471;DHT22;11908;50.806;4.424;2024-01-30T03:36:19;11.70;99.90
23471;DHT22;11908;50.806;4.424;2024-01-30T03:38:45;11.70;99.90
23471;DHT22;11908;50.806;4.424;2024-01-30T03:41:11;11.80;99.90
23471;DHT22;11908;50.806;4.424;2024-01-30T03:43:37;11.80;99.90
23471;DHT22;11908;50.806;4.424;2024-01-30T03:46:03;11.80;99.90
23471;DHT22;11908;50.806;4.424;2024-01-30T03:48:29;11.80;99.90
23471;DHT22;11908;50.806;4.424;2024-01-30T03:50:55;11.70;99.90
23471;DHT22;11908;50.806;4.424;2024-01-30T03:53:21;11.70;99.90
23471;DHT22;11908;50.806;4.424;2024-01-30T03:55:46;11.80;99.90
23471;DHT22;11908;50.806;4.424;2024-01-30T03:58:12;11.70;99.90
23471;DHT22;11908;50.806;4.424;2024-01-30T04:00:38;11.70;99.90
23471;DHT22;11908;50.806;4.424;2024-01-30T04:03:04;11.70;99.90
23471;DHT22;11908;50.806;4.424;2024-01-30T04:05:30;11.70;99.90
23471;DHT22;11908;50.806;4.424;2024-01-30T04:07:56;11.80;99.90
23471;DHT22;11908;50.806;4.424;2024-01-30T04:10:23;11.60;99.90
23471;DHT22;11908;50.806;4.424;2024-01-30T04:12:48;11.60;99.90
23471;DHT22;11908;50.806;4.424;2024-01-30T04:15:14;11.60;99.90
23471;DHT22;11908;50.806;4.424;2024-01-30T04:17:41;11.50;99.90
23471;DHT22;11908;50.806;4.424;2024-01-30T04:20:06;11.60;99.90
23471;DHT22;11908;50.806;4.424;2024-01-30T04:22:32;11.60;99.90
23471;DHT22;11908;50.806;4.424;2024-01-30T04:24:58;11.60;99.90
23471;DHT22;11908;50.806;4.424;2024-01-30T04:27:23;11.60;99.90
23471;DHT22;11908;50.806;4.424;2024-01-30T04:29:49;11.50;99.90
23471;DHT22;11908;50.806;4.424;2024-01-30T04:32:15;11.60;99.90
23471;DHT22;11908;50.806;4.424;2024-01-30T04:34:40;11.60;99.90
23471;DHT22;11908;50.806;4.424;2024-01-30T04:37:06;11.60;99.90
23471;DHT22;11908;50.806;4.424;2024-01-30T04:39:35;11.50;99.90
23471;DHT22;11908;50.806;4.424;2024-01-30T04:42:00;11.50;99.90
23471;DHT22;11908;50.806;4.424;2024-01-30T04:44:26;11.50;99.90
23471;DHT22;11908;50.806;4.424;2024-01-30T04:46:51;11.50;99.90
23471;DHT22;11908;50.806;4.424;2024-01-30T04:49:17;11.50;99.90
23471;DHT22;11908;50.806;4.424;2024-01-30T04:51:43;11.50;99.90
23471;DHT22;11908;50.806;4.424;2024-01-30T04:54:08;11.50;99.90
23471;DHT22;11908;50.806;4.424;2024-01-30T04:56:34;11.50;99.90
23471;DHT22;11908;50.806;4.424;2024-01-30T04:59:02;11.50;99.90
23471;DHT22;11908;50.806;4.424;2024-01-30T05:01:28;11.60;99.90
23471;DHT22;11908;50.806;4.424;2024-01-30T05:03:53;11.60;99.90
23471;DHT22;11908;50.806;4.424;2024-01-30T05:06:26;11.50;99.90
23471;DHT22;11908;50.806;4.424;2024-01-30T05:08:52;11.50;99.90
23471;DHT22;11908;50.806;4.424;2024-01-30T05:11:17;11.50;99.90
23471;DHT22;11908;50.806;4.424;2024-01-30T05:13:43;11.60;99.90
23471;DHT22;11908;50.806;4.424;2024-01-30T05:16:09;11.50;99.90
23471;DHT22;11908;50.806;4.424;2024-01-30T05:18:34;11.50;99.90
23471;DHT22;11908;50.806;4.424;2024-01-30T05:21:00;11.40;99.90
23471;DHT22;11908;50.806;4.424;2024-01-30T05:23:25;11.40;99.90
23471;DHT22;11908;50.806;4.424;2024-01-30T05:25:51;11.50;99.90
23471;DHT22;11908;50.806;4.424;2024-01-30T05:28:17;11.50;99.90
23471;DHT22;11908;50.806;4.424;2024-01-30T05:30:42;11.50;99.90
23471;DHT22;11908;50.806;4.424;2024-01-30T05:33:08;11.50;99.90
23471;DHT22;11908;50.806;4.424;2024-01-30T05:35:35;11.60;99.90
23471;DHT22;11908;50.806;4.424;2024-01-30T05:38:00;11.60;99.90
23471;DHT22;11908;50.806;4.424;2024-01-30T05:40:26;11.50;99.90
23471;DHT22;11908;50.806;4.424;2024-01-30T05:42:53;11.50;99.90
23471;DHT22;11908;50.806;4.424;2024-01-30T05:45:18;11.50;99.90
23471;DHT22;11908;50.806;4.424;2024-01-30T05:47:44;11.50;99.90
23471;DHT22;11908;50.806;4.424;2024-01-30T05:50:09;11.40;99.90
23471;DHT22;11908;50.806;4.424;2024-01-30T05:52:35;11.40;99.90
23471;DHT22;11908;50.806;4.424;2024-01-30T05:55:01;11.40;99.90
23471;DHT22;11908;50.806;4.424;2024-01-30T05:57:27;11.40;99.90
23471;DHT22;11908;50.806;4.424;2024-01-30T05:59:53;11.50;99.90
23471;DHT22;11908;50.806;4.424;2024-01-30T06:02:18;11.50;99.90
23471;DHT22;11908;50.806;4.424;2024-01-30T06:04:44;11.50;99.90
23471;DHT22;11908;50.806;4.424;2024-01-30T06:07:10;11.50;99.90
23471;DHT22;11908;50.806;4.424;2024-01-30T06:09:35;11.40;99.90
23471;DHT22;11908;50.806;4.424;2024-01-30T06:12:01;11.30;99.90
23471;DHT22;11908;50.806;4.424;2024-01-30T06:14:27;11.30;99.90
23471;DHT22;11908;50.806;4.424;2024-01-30T06:16:53;11.20;99.90
23471;DHT22;11908;50.806;4.424;2024-01-30T06:19:18;11.20;99.90
23471;DHT22;11908;50.806;4.424;2024-01-30T06:21:44;11.20;99.90
23471;DHT22;11908;50.806;4.424;2024-01-30T06:24:10;11.20;99.90
23471;DHT22;11908;50.806;4.424;2024-01-30T06:26:36;11.20;99.90
23471;DHT22;11908;50.806;4.424;2024-01-30T06:29:02;11.20;99.90
23471;DHT22;11908;50.806;4.424;2024-01-30T06:31:27;11.20;99.90
23471;DHT22;11908;50.806;4.424;2024-01-30T06:33:53;11.10;99.90
23471;DHT22;11908;50.806;4.424;2024-01-30T06:36:19;11.20;99.90
23471;DHT22;11908;50.806;4.424;2024-01-30T06:38:45;11.20;99.90
23471;DHT22;11908;50.806;4.424;2024-01-30T06:41:10;11.20;99.90
23471;DHT22;11908;50.806;4.424;2024-01-30T06:43:36;11.20;99.90
23471;DHT22;11908;50.806;4.424;2024-01-30T06:46:02;11.20;99.90
23471;DHT22;11908;50.806;4.424;2024-01-30T06:48:28;11.20;99.90
23471;DHT22;11908;50.806;4.424;2024-01-30T06:50:54;11.20;99.90
23471;DHT22;11908;50.806;4.424;2024-01-30T06:53:20;11.30;99.90
23471;DHT22;11908;50.806;4.424;2024-01-30T06:55:45;11.30;99.90
23471;DHT22;11908;50.806;4.424;2024-01-30T06:58:11;11.30;99.90
23471;DHT22;11908;50.806;4.424;2024-01-30T07:00:37;11.20;99.90
23471;DHT22;11908;50.806;4.424;2024-01-30T07:03:03;11.20;99.90
23471;DHT22;11908;50.806;4.424;2024-01-30T07:05:29;11.20;99.90
23471;DHT22;11908;50.806;4.424;2024-01-30T07:07:55;11.10;99.90
23471;DHT22;11908;50.806;4.424;2024-01-30T07:10:20;11.10;99.90
23471;DHT22;11908;50.806;4.424;2024-01-30T07:12:46;11.20;99.90
23471;DHT22;11908;50.806;4.424;2024-01-30T07:15:12;11.20;99.90
23471;DHT22;11908;50.806;4.424;2024-01-30T07:17:41;11.10;99.90
23471;DHT22;11908;50.806;4.424;2024-01-30T07:20:07;11.10;99.90
23471;DHT22;11908;50.806;4.424;2024-01-30T07:22:34;11.10;99.90
23471;DHT22;11908;50.806;4.424;2024-01-30T07:25:00;11.10;99.90
23471;DHT22;11908;50.806;4.424;2024-01-30T07:27:26;11.10;99.90
23471;DHT22;11908;50.806;4.424;2024-01-30T07:29:51;11.20;99.90
23471;DHT22;11908;50.806;4.424;2024-01-30T07:32:17;11.30;99.90
23471;DHT22;11908;50.806;4.424;2024-01-30T07:34:44;11.30;99.90
23471;DHT22;11908;50.806;4.424;2024-01-30T07:37:09;11.30;99.90
23471;DHT22;11908;50.806;4.424;2024-01-30T07:39:36;11.40;99.90
23471;DHT22;11908;50.806;4.424;2024-01-30T07:42:02;11.40;99.90
23471;DHT22;11908;50.806;4.424;2024-01-30T07:44:28;11.40;99.90
23471;DHT22;11908;50.806;4.424;2024-01-30T07:46:53;11.50;99.90
23471;DHT22;11908;50.806;4.424;2024-01-30T07:49:20;11.50;99.90
23471;DHT22;11908;50.806;4.424;2024-01-30T07:51:46;11.50;99.90
23471;DHT22;11908;50.806;4.424;2024-01-30T07:54:11;11.50;99.90
23471;DHT22;11908;50.806;4.424;2024-01-30T07:56:40;11.60;99.90
23471;DHT22;11908;50.806;4.424;2024-01-30T07:59:09;11.60;99.90
23471;DHT22;11908;50.806;4.424;2024-01-30T08:01:35;11.70;99.90
23471;DHT22;11908;50.806;4.424;2024-01-30T08:04:01;11.70;99.90
23471;DHT22;11908;50.806;4.424;2024-01-30T08:06:27;11.70;99.90
23471;DHT22;11908;50.806;4.424;2024-01-30T08:08:52;11.70;99.90
23471;DHT22;11908;50.806;4.424;2024-01-30T08:11:20;11.70;99.90
23471;DHT22;11908;50.806;4.424;2024-01-30T08:13:51;11.70;99.90
23471;DHT22;11908;50.806;4.424;2024-01-30T08:16:17;11.70;99.90
23471;DHT22;11908;50.806;4.424;2024-01-30T08:18:43;11.70;99.90
23471;DHT22;11908;50.806;4.424;2024-01-30T08:21:09;11.80;99.90
23471;DHT22;11908;50.806;4.424;2024-01-30T08:23:34;11.80;99.90
23471;DHT22;11908;50.806;4.424;2024-01-30T08:26:00;11.80;99.90
23471;DHT22;11908;50.806;4.424;2024-01-30T08:28:26;11.90;99.90
23471;DHT22;11908;50.806;4.424;2024-01-30T08:30:52;11.90;99.90
23471;DHT22;11908;50.806;4.424;2024-01-30T08:33:18;11.90;99.90
23471;DHT22;11908;50.806;4.424;2024-01-30T08:35:44;11.90;99.90
23471;DHT22;11908;50.806;4.424;2024-01-30T08:38:09;11.90;99.90
23471;DHT22;11908;50.806;4.424;2024-01-30T08:40:37;12.00;99.90
23471;DHT22;11908;50.806;4.424;2024-01-30T08:43:03;12.00;99.90
23471;DHT22;11908;50.806;4.424;2024-01-30T08:45:29;12.00;99.90
23471;DHT22;11908;50.806;4.424;2024-01-30T08:47:56;12.10;99.90
23471;DHT22;11908;50.806;4.424;2024-01-30T08:50:22;12.10;99.90
23471;DHT22;11908;50.806;4.424;2024-01-30T08:52:47;12.10;99.90
23471;DHT22;11908;50.806;4.424;2024-01-30T08:55:13;12.10;99.90
23471;DHT22;11908;50.806;4.424;2024-01-30T08:57:39;12.10;99.90
23471;DHT22;11908;50.806;4.424;2024-01-30T09:00:05;12.00;99.90
23471;DHT22;11908;50.806;4.424;2024-01-30T09:02:32;12.20;99.90
23471;DHT22;11908;50.806;4.424;2024-01-30T09:04:58;12.10;99.90
23471;DHT22;11908;50.806;4.424;2024-01-30T09:07:24;12.10;99.90
23471;DHT22;11908;50.806;4.424;2024-01-30T09:09:50;12.10;99.90
23471;DHT22;11908;50.806;4.424;2024-01-30T09:12:15;12.10;99.90
23471;DHT22;11908;50.806;4.424;2024-01-30T09:14:41;12.10;99.90
23471;DHT22;11908;50.806;4.424;2024-01-30T09:17:07;12.20;99.90
23471;DHT22;11908;50.806;4.424;2024-01-30T09:19:33;12.20;99.90
23471;DHT22;11908;50.806;4.424;2024-01-30T09:21:59;12.30;99.90
23471;DHT22;11908;50.806;4.424;2024-01-30T09:24:26;12.20;99.90
23471;DHT22;11908;50.806;4.424;2024-01-30T09:26:52;12.30;99.90
23471;DHT22;11908;50.806;4.424;2024-01-30T09:29:17;12.40;99.90
23471;DHT22;11908;50.806;4.424;2024-01-30T09:31:46;12.40;99.90
23471;DHT22;11908;50.806;4.424;2024-01-30T09:34:13;12.30;99.90
23471;DHT22;11908;50.806;4.424;2024-01-30T09:36:39;12.40;99.90
23471;DHT22;11908;50.806;4.424;2024-01-30T09:39:05;12.30;99.90
23471;DHT22;11908;50.806;4.424;2024-01-30T09:41:43;12.30;99.90
23471;DHT22;11908;50.806;4.424;2024-01-30T09:44:11;12.30;99.90
23471;DHT22;11908;50.806;4.424;2024-01-30T09:46:38;12.20;99.90
23471;DHT22;11908;50.806;4.424;2024-01-30T09:49:04;12.20;99.90
23471;DHT22;11908;50.806;4.424;2024-01-30T09:51:32;12.20;99.90
23471;DHT22;11908;50.806;4.424;2024-01-30T09:53:57;12.20;99.90
23471;DHT22;11908;50.806;4.424;2024-01-30T09:56:23;12.10;99.90
23471;DHT22;11908;50.806;4.424;2024-01-30T09:58:49;12.10;99.90
23471;DHT22;11908;50.806;4.424;2024-01-30T10:01:16;12.00;99.90
23471;DHT22;11908;50.806;4.424;2024-01-30T10:03:44;12.00;99.90
23471;DHT22;11908;50.806;4.424;2024-01-30T10:06:10;12.00;99.90
23471;DHT22;11908;50.806;4.424;2024-01-30T10:08:36;12.00;99.90
23471;DHT22;11908;50.806;4.424;2024-01-30T10:11:01;12.10;99.90
23471;DHT22;11908;50.806;4.424;2024-01-30T10:13:28;12.00;99.90
23471;DHT22;11908;50.806;4.424;2024-01-30T10:15:54;12.00;99.90
23471;DHT22;11908;50.806;4.424;2024-01-30T10:18:22;12.00;99.90
23471;DHT22;11908;50.806;4.424;2024-01-30T10:20:48;12.10;99.90
23471;DHT22;11908;50.806;4.424;2024-01-30T10:23:13;12.10;99.90
23471;DHT22;11908;50.806;4.424;2024-01-30T10:25:39;12.20;99.90
23471;DHT22;11908;50.806;4.424;2024-01-30T10:28:05;12.10;99.90
23471;DHT22;11908;50.806;4.424;2024-01-30T10:30:31;12.10;99.90
23471;DHT22;11908;50.806;4.424;2024-01-30T10:32:57;12.10;99.90
23471;DHT22;11908;50.806;4.424;2024-01-30T10:35:23;12.00;99.90
23471;DHT22;11908;50.806;4.424;2024-01-30T10:37:48;12.00;99.90
23471;DHT22;11908;50.806;4.424;2024-01-30T10:40:15;12.20;99.90
23471;DHT22;11908;50.806;4.424;2024-01-30T10:42:44;12.20;99.90
23471;DHT22;11908;50.806;4.424;2024-01-30T10:45:11;12.30;99.90
23471;DHT22;11908;50.806;4.424;2024-01-30T10:47:49;12.30;99.90
23471;DHT22;11908;50.806;4.424;2024-01-30T10:50:15;12.30;99.90
23471;DHT22;11908;50.806;4.424;2024-01-30T10:52:41;12.40;99.90
23471;DHT22;11908;50.806;4.424;2024-01-30T10:55:10;12.40;99.90
23471;DHT22;11908;50.806;4.424;2024-01-30T10:57:36;12.50;99.90
23471;DHT22;11908;50.806;4.424;2024-01-30T11:00:06;12.70;99.90
23471;DHT22;11908;50.806;4.424;2024-01-30T11:02:44;12.70;99.90
23471;DHT22;11908;50.806;4.424;2024-01-30T11:05:12;12.80;99.90
23471;DHT22;11908;50.806;4.424;2024-01-30T11:07:39;12.60;99.90
23471;DHT22;11908;50.806;4.424;2024-01-30T11:10:06;12.40;99.90
23471;DHT22;11908;50.806;4.424;2024-01-30T11:12:38;12.20;99.90
23471;DHT22;11908;50.806;4.424;2024-01-30T11:15:16;12.20;99.90
23471;DHT22;11908;50.806;4.424;2024-01-30T11:20:25;12.00;99.90
23471;DHT22;11908;50.806;4.424;2024-01-30T11:22:52;12.00;99.90
23471;DHT22;11908;50.806;4.424;2024-01-30T11:25:20;11.90;99.90
23471;DHT22;11908;50.806;4.424;2024-01-30T11:27:47;11.70;99.90
23471;DHT22;11908;50.806;4.424;2024-01-30T11:30:25;11.70;99.90
23471;DHT22;11908;50.806;4.424;2024-01-30T11:33:08;11.70;99.90
23471;DHT22;11908;50.806;4.424;2024-01-30T11:35:35;11.80;99.90
23471;DHT22;11908;50.806;4.424;2024-01-30T11:38:02;11.80;99.90
23471;DHT22;11908;50.806;4.424;2024-01-30T11:40:29;11.80;99.90
23471;DHT22;11908;50.806;4.424;2024-01-30T11:42:56;11.80;99.90
23471;DHT22;11908;50.806;4.424;2024-01-30T11:45:22;11.90;99.90
23471;DHT22;11908;50.806;4.424;2024-01-30T11:47:47;11.90;99.90
23471;DHT22;11908;50.806;4.424;2024-01-30T11:50:13;11.90;99.90
23471;DHT22;11908;50.806;4.424;2024-01-30T11:52:40;11.90;99.90
23471;DHT22;11908;50.806;4.424;2024-01-30T11:55:07;11.90;99.90
23471;DHT22;11908;50.806;4.424;2024-01-30T11:57:33;11.80;99.90
23471;DHT22;11908;50.806;4.424;2024-01-30T12:00:01;11.70;99.90
23471;DHT22;11908;50.806;4.424;2024-01-30T12:02:26;11.50;99.90
23471;DHT22;11908;50.806;4.424;2024-01-30T12:04:52;11.70;99.90
23471;DHT22;11908;50.806;4.424;2024-01-30T12:07:18;11.70;99.90
23471;DHT22;11908;50.806;4.424;2024-01-30T12:09:53;11.70;99.90
23471;DHT22;11908;50.806;4.424;2024-01-30T12:12:21;11.80;99.90
23471;DHT22;11908;50.806;4.424;2024-01-30T12:14:47;11.80;99.90
23471;DHT22;11908;50.806;4.424;2024-01-30T12:17:23;12.00;99.90
23471;DHT22;11908;50.806;4.424;2024-01-30T12:19:49;12.10;99.90
23471;DHT22;11908;50.806;4.424;2024-01-30T12:22:15;12.20;99.90
23471;DHT22;11908;50.806;4.424;2024-01-30T12:24:41;12.20;99.90
23471;DHT22;11908;50.806;4.424;2024-01-30T12:27:06;12.20;99.90
23471;DHT22;11908;50.806;4.424;2024-01-30T12:29:32;12.00;99.90
23471;DHT22;11908;50.806;4.424;2024-01-30T12:31:59;12.00;99.90
23471;DHT22;11908;50.806;4.424;2024-01-30T12:34:25;12.00;99.90
23471;DHT22;11908;50.806;4.424;2024-01-30T12:36:51;12.00;99.90
23471;DHT22;11908;50.806;4.424;2024-01-30T12:39:16;11.80;99.90
23471;DHT22;11908;50.806;4.424;2024-01-30T12:41:42;11.80;99.90
23471;DHT22;11908;50.806;4.424;2024-01-30T12:44:08;11.80;99.90
23471;DHT22;11908;50.806;4.424;2024-01-30T12:46:34;11.80;99.90
23471;DHT22;11908;50.806;4.424;2024-01-30T12:49:00;12.20;99.90
23471;DHT22;11908;50.806;4.424;2024-01-30T12:51:26;12.40;99.90
23471;DHT22;11908;50.806;4.424;2024-01-30T12:53:52;12.80;99.90
23471;DHT22;11908;50.806;4.424;2024-01-30T12:56:17;13.40;99.90
23471;DHT22;11908;50.806;4.424;2024-01-30T12:58:43;13.70;99.90
23471;DHT22;11908;50.806;4.424;2024-01-30T13:01:09;13.80;99.90
23471;DHT22;11908;50.806;4.424;2024-01-30T13:03:35;13.90;99.90
23471;DHT22;11908;50.806;4.424;2024-01-30T13:06:01;13.80;99.90
23471;DHT22;11908;50.806;4.424;2024-01-30T13:08:28;13.50;99.90
23471;DHT22;11908;50.806;4.424;2024-01-30T13:10:53;13.10;99.90
23471;DHT22;11908;50.806;4.424;2024-01-30T13:13:19;12.90;99.90
23471;DHT22;11908;50.806;4.424;2024-01-30T13:15:45;12.70;99.90
23471;DHT22;11908;50.806;4.424;2024-01-30T13:18:10;12.70;99.90
23471;DHT22;11908;50.806;4.424;2024-01-30T13:20:36;13.00;99.90
23471;DHT22;11908;50.806;4.424;2024-01-30T13:23:02;12.90;99.90
23471;DHT22;11908;50.806;4.424;2024-01-30T13:25:27;12.90;99.90
23471;DHT22;11908;50.806;4.424;2024-01-30T13:27:53;12.70;99.90
23471;DHT22;11908;50.806;4.424;2024-01-30T13:30:19;12.40;99.90
23471;DHT22;11908;50.806;4.424;2024-01-30T13:32:45;12.40;99.90
23471;DHT22;11908;50.806;4.424;2024-01-30T13:35:11;12.40;99.90
23471;DHT22;11908;50.806;4.424;2024-01-30T13:37:37;12.40;99.90
23471;DHT22;11908;50.806;4.424;2024-01-30T13:40:04;12.30;99.90
23471;DHT22;11908;50.806;4.424;2024-01-30T13:42:32;12.40;99.90
23471;DHT22;11908;50.806;4.424;2024-01-30T13:44:58;12.40;99.90
23471;DHT22;11908;50.806;4.424;2024-01-30T13:47:23;12.20;99.90
23471;DHT22;11908;50.806;4.424;2024-01-30T13:49:50;12.10;99.90
23471;DHT22;11908;50.806;4.424;2024-01-30T13:52:18;12.00;99.90
23471;DHT22;11908;50.806;4.424;2024-01-30T13:54:43;12.10;99.90
23471;DHT22;11908;50.806;4.424;2024-01-30T13:57:09;12.10;99.90
23471;DHT22;11908;50.806;4.424;2024-01-30T13:59:35;12.10;99.90
23471;DHT22;11908;50.806;4.424;2024-01-30T14:02:01;12.10;99.90
23471;DHT22;11908;50.806;4.424;2024-01-30T14:04:26;12.10;99.90
23471;DHT22;11908;50.806;4.424;2024-01-30T14:06:52;12.00;99.90
23471;DHT22;11908;50.806;4.424;2024-01-30T14:09:18;11.80;99.90
23471;DHT22;11908;50.806;4.424;2024-01-30T14:11:44;11.90;99.90
23471;DHT22;11908;50.806;4.424;2024-01-30T14:14:09;12.00;99.90
23471;DHT22;11908;50.806;4.424;2024-01-30T14:16:35;12.00;99.90
23471;DHT22;11908;50.806;4.424;2024-01-30T14:19:01;12.00;99.90
23471;DHT22;11908;50.806;4.424;2024-01-30T14:21:26;12.00;99.90
23471;DHT22;11908;50.806;4.424;2024-01-30T14:23:52;11.90;99.90
23471;DHT22;11908;50.806;4.424;2024-01-30T14:26:18;11.80;99.90
23471;DHT22;11908;50.806;4.424;2024-01-30T14:28:43;11.90;99.90
23471;DHT22;11908;50.806;4.424;2024-01-30T14:31:11;12.00;99.90
23471;DHT22;11908;50.806;4.424;2024-01-30T14:33:37;12.00;99.90
23471;DHT22;11908;50.806;4.424;2024-01-30T14:36:02;11.90;99.90
23471;DHT22;11908;50.806;4.424;2024-01-30T14:38:28;11.80;99.90
23471;DHT22;11908;50.806;4.424;2024-01-30T14:40:54;11.70;99.90
23471;DHT22;11908;50.806;4.424;2024-01-30T14:43:20;11.70;99.90
23471;DHT22;11908;50.806;4.424;2024-01-30T14:45:45;11.80;99.90
23471;DHT22;11908;50.806;4.424;2024-01-30T14:48:14;11.70;99.90
23471;DHT22;11908;50.806;4.424;2024-01-30T14:50:40;11.70;99.90
23471;DHT22;11908;50.806;4.424;2024-01-30T14:53:06;11.70;99.90
23471;DHT22;11908;50.806;4.424;2024-01-30T14:55:32;11.70;99.90
23471;DHT22;11908;50.806;4.424;2024-01-30T14:57:58;11.70;99.90
23471;DHT22;11908;50.806;4.424;2024-01-30T15:00:25;11.60;99.90
23471;DHT22;11908;50.806;4.424;2024-01-30T15:02:50;11.50;99.90
23471;DHT22;11908;50.806;4.424;2024-01-30T15:05:16;11.50;99.90
23471;DHT22;11908;50.806;4.424;2024-01-30T15:07:43;11.30;99.90
23471;DHT22;11908;50.806;4.424;2024-01-30T15:10:09;11.20;99.90
23471;DHT22;11908;50.806;4.424;2024-01-30T15:12:37;11.10;99.90
23471;DHT22;11908;50.806;4.424;2024-01-30T15:15:04;11.10;99.90
23471;DHT22;11908;50.806;4.424;2024-01-30T15:17:30;11.00;99.90
23471;DHT22;11908;50.806;4.424;2024-01-30T15:19:56;10.90;99.90
23471;DHT22;11908;50.806;4.424;2024-01-30T15:22:24;10.80;99.90
23471;DHT22;11908;50.806;4.424;2024-01-30T15:24:49;10.70;99.90
23471;DHT22;11908;50.806;4.424;2024-01-30T15:27:15;10.70;99.90